Have a Safe July 4th! 

Flight Track Log - Related Links

Times and Time Zones

All times are in EDT time to prevent confusion due to time zone crossing. See the MAL8056 flight status page for this flight to view local times or setup timezone preferences in your user account.

Time Position Orientation Groundspeed Altitude Reporting Facility
EDT Latitude Longitude Course Direction KTS MPH feet Rate Location/Type
Mon 08:12:43 AM 43.6833 -79.6167 North 10 12 500  Level Toronto Center
Mon 08:13:43 AM 43.6667 -79.6333 216° Southwest 90 104 1,000 600 Climbing Toronto Center
Mon 08:14:43 AM 43.7000 -79.6500 340° North 110 127 1,700 750 Climbing Toronto Center
Mon 08:15:43 AM 43.7167 -79.6833 305° West 120 138 2,500 750 Climbing Toronto Center
Mon 08:16:43 AM 43.7500 -79.7000 340° North 120 138 3,200 700 Climbing Toronto Center
Mon 08:18:00 AM 43.8048 -79.7199 340° North  Level Estimated
Mon 08:18:43 AM 43.8167 -79.7333 340° North 130 150 4,600  Level Toronto Center
Mon 08:19:00 AM 43.9686 -79.6833 North  Level FlightAware Approximate
Mon 08:19:43 AM 43.8667 -79.7333 360° North 130 150 5,000  Level Toronto Center
Mon 08:20:43 AM 43.9000 -79.7333 360° North 160 184 5,000 200 Level Toronto Center
Mon 08:21:43 AM 43.9500 -79.7333 360° North 160 184 5,400 400 Climbing Toronto Center
Mon 08:22:43 AM 43.9833 -79.7333 360° North 150 173 5,800 400 Climbing Toronto Center
Mon 08:23:43 AM 44.0333 -79.7333 360° North 150 173 6,200 450 Climbing Toronto Center
Mon 08:24:43 AM 44.0667 -79.7333 360° North 150 173 6,700 467 Climbing Toronto Center
Mon 08:26:00 AM 44.1216 -79.7519 344° North  Level FlightAware Approximate
Mon 08:26:43 AM 44.1500 -79.7500 344° North 150 173 7,600  Level Toronto Center
Mon 08:28:00 AM 44.2043 -79.7719 344° North  Level FlightAware Approximate
Mon 08:28:43 AM 44.2333 -79.8000 344° North 160 184 8,000  Level Toronto Center
Mon 08:30:00 AM 44.2877 -79.8213 344° North  Level FlightAware Approximate
Mon 08:30:43 AM 44.3333 -79.8167 344° North 170 196 8,000  Level Toronto Center
Mon 08:31:43 AM 44.3667 -79.8500 324° Northwest 170 196 8,000  Level Toronto Center
Mon 08:32:43 AM 44.4167 -79.8667 347° North 170 196 8,000  Level Toronto Center
Mon 08:33:43 AM 44.4667 -79.8667 360° North 170 196 8,000  Level Toronto Center
Mon 08:35:00 AM 44.5208 -79.8895 343° North  Level FlightAware Approximate
Mon 08:35:43 AM 44.5500 -79.9167 343° North 170 196 8,000  Level Toronto Center
Mon 08:36:43 AM 44.6000 -79.9333 347° North 170 196 8,000  Level Toronto Center
Mon 08:37:43 AM 44.6333 -79.9333 360° North 170 196 8,000  Level Toronto Center
Mon 08:38:43 AM 44.6833 -79.9667 335° Northwest 160 184 8,000  Level Toronto Center
Mon 08:40:00 AM 44.7375 -79.9891 344° North  Level FlightAware Approximate
Mon 08:41:43 AM 44.8167 -80.0333 344° North 160 184 8,000  Level Toronto Center
Mon 08:43:00 AM 44.8709 -80.0556 344° North  Level Estimated
Mon 08:43:43 AM 44.9000 -80.0500 344° North 170 196 8,000  Level Toronto Center
Mon 08:44:43 AM 44.9500 -80.0833 335° Northwest 170 196 8,000  Level Toronto Center
Mon 08:45:43 AM 45.0000 -80.1000 347° North 170 196 8,000  Level Toronto Center
Mon 08:46:43 AM 45.0333 -80.1333 325° Northwest 170 196 8,000  Level Toronto Center
Mon 08:47:00 AM 45.0331 -80.1121 344° North  Level FlightAware Approximate
Mon 08:47:43 AM 45.0833 -80.1333 360° North 170 196 8,000  Level Toronto Center
Mon 08:48:43 AM 45.1333 -80.1500 347° North 170 196 8,000  Level Toronto Center
Mon 08:50:00 AM 45.1875 -80.1729 343° North  Level Estimated
Mon 08:50:43 AM 45.2167 -80.1833 343° North 170 196 8,000  Level Toronto Center
Mon 08:51:43 AM 45.2667 -80.2000 347° North 170 196 8,000  Level Toronto Center
Mon 08:52:43 AM 45.3167 -80.2333 335° Northwest 170 196 8,000  Level Toronto Center
Mon 08:53:43 AM 45.3500 -80.2500 341° North 170 196 8,000  Level Toronto Center
Mon 08:54:43 AM 45.4000 -80.2500 360° North 170 196 8,000  Level Toronto Center
Mon 08:55:43 AM 45.4333 -80.2667 341° North 170 196 8,000  Level Toronto Center
Mon 08:57:00 AM 45.4872 -80.2909 342° North  Level FlightAware Approximate
Mon 08:58:43 AM 45.5667 -80.3167 342° North 170 196 8,000  Level Toronto Center
Mon 08:59:43 AM 45.6167 -80.3500 335° Northwest 170 196 8,000  Level Toronto Center
Mon 09:00:43 AM 45.6667 -80.3667 347° North 170 196 8,000  Level Toronto Center
Mon 09:01:43 AM 45.7167 -80.4000 335° Northwest 170 196 8,000  Level Toronto Center
Mon 09:02:43 AM 45.7500 -80.4000 360° North 170 196 8,000  Level Toronto Center
Mon 09:03:43 AM 45.8000 -80.4167 347° North 170 196 8,000  Level Toronto Center
Mon 09:04:00 AM 45.7810 -80.4241 342° North  Level FlightAware Approximate
Mon 09:04:43 AM 45.8500 -80.4500 335° Northwest 170 196 8,000  Level Toronto Center
Mon 09:05:43 AM 45.8833 -80.4667 341° North 170 196 8,000  Level Toronto Center
Mon 09:06:43 AM 45.9333 -80.5000 335° Northwest 170 196 8,000 -67 Level Toronto Center
Mon 09:08:00 AM 45.9874 -80.5236 343° North  Level FlightAware Approximate
Mon 09:08:43 AM 46.0333 -80.5167 343° North 170 196 7,800  Level Toronto Center
Mon 09:09:43 AM 46.0667 -80.5500 325° Northwest 180 207 7,300 -567 Descending Toronto Center
Mon 09:11:00 AM 46.1201 -80.5767 341° North  Level FlightAware Approximate
Mon 09:11:43 AM 46.1667 -80.6000 341° North 180 207 6,100  Level Toronto Center
Mon 09:12:43 AM 46.2167 -80.6000 360° North 180 207 5,500 -600 Descending Toronto Center
Mon 09:13:43 AM 46.2667 -80.6167 347° North 180 207 4,900 -500 Descending Toronto Center
Mon 09:14:43 AM 46.3167 -80.6500 335° Northwest 170 196 4,500 -450 Descending Toronto Center
Mon 09:15:43 AM 46.3667 -80.6667 347° North 170 196 4,000 -400 Descending Toronto Center
Mon 09:17:00 AM 46.4194 -80.6978 345° North  Level FlightAware Approximate
Mon 09:17:43 AM 46.4500 -80.7167 345° North 170 196 3,300  Level Toronto Center
Mon 09:18:43 AM 46.4833 -80.7500 325° Northwest 170 196 2,900 -350 Descending Toronto Center
Mon 09:19:43 AM 46.5333 -80.7667 347° North 170 196 2,600 -367 Descending Toronto Center
Mon 09:21:00 AM 46.5893 -80.7779 352° North  Level FlightAware Approximate
Mon 09:21:43 AM 46.6000 -80.8000 352° North 130 150 1,800  Level Toronto Center

Login

Don't have an account? Register now (free) for customized features, flight alerts, and more!